createdAt,value
2023-07-09T00:02:21.049Z,99382.25
2023-07-09T00:04:51.703Z,99383.38
2023-07-09T00:07:26.459Z,99390.22
2023-07-09T00:09:58.523Z,99373.00
2023-07-09T00:12:29.542Z,99378.44
2023-07-09T00:15:01.578Z,99379.94
2023-07-09T00:17:35.446Z,99373.13
2023-07-09T00:20:07.602Z,99342.97
2023-07-09T00:22:38.089Z,99378.00
2023-07-09T00:25:09.196Z,99366.41
2023-07-09T00:27:39.981Z,99364.56
2023-07-09T00:30:18.186Z,99362.00
2023-07-09T00:32:48.613Z,99359.38
2023-07-09T00:35:19.331Z,99365.19
2023-07-09T00:37:50.296Z,99364.28
2023-07-09T00:40:22.847Z,99366.66
2023-07-09T00:42:55.894Z,99310.06
2023-07-09T00:45:30.022Z,99371.31
2023-07-09T00:48:02.810Z,99353.03
2023-07-09T00:50:47.397Z,99358.06
2023-07-09T00:53:22.494Z,99341.97
2023-07-09T00:55:58.593Z,99332.59
2023-07-09T00:58:30.865Z,99343.22
2023-07-09T01:01:07.597Z,99340.63
2023-07-09T01:03:42.829Z,99329.03
2023-07-09T01:06:14.333Z,99337.41
2023-07-09T01:08:44.933Z,99342.22
2023-07-09T01:11:24.102Z,99328.78
2023-07-09T01:13:58.304Z,99335.91
2023-07-09T01:16:34.328Z,99339.34
2023-07-09T01:19:06.292Z,99335.31
2023-07-09T01:21:38.427Z,99329.25
2023-07-09T01:24:18.082Z,99321.88
2023-07-09T01:26:49.216Z,99323.38
2023-07-09T01:29:19.743Z,99321.00
2023-07-09T01:31:50.258Z,99325.69
2023-07-09T01:34:23.981Z,99315.28
2023-07-09T01:36:56.391Z,99318.31
2023-07-09T01:39:28.038Z,99319.59
2023-07-09T01:41:58.822Z,99320.66
2023-07-09T01:44:32.077Z,99295.03
2023-07-09T01:47:06.294Z,99308.25
2023-07-09T01:49:36.752Z,99311.78
2023-07-09T01:52:10.382Z,99316.31
2023-07-09T01:54:41.214Z,99304.22
2023-07-09T01:57:21.362Z,99307.94
2023-07-09T01:59:51.827Z,99292.53
2023-07-09T02:02:22.468Z,99284.78
2023-07-09T02:04:54.748Z,99280.78
2023-07-09T02:07:28.124Z,99274.47
2023-07-09T02:09:58.602Z,99269.81
2023-07-09T02:12:29.203Z,99269.63
2023-07-09T02:14:59.718Z,99270.81
2023-07-09T02:17:30.230Z,99261.13
2023-07-09T02:20:00.750Z,99264.84
2023-07-09T02:22:32.857Z,99245.97
2023-07-09T02:25:03.678Z,99242.28
2023-07-09T02:27:34.190Z,99256.09
2023-07-09T02:30:04.696Z,99250.38
2023-07-09T02:32:35.298Z,99249.06
2023-07-09T02:35:06.456Z,99246.38
2023-07-09T02:37:38.651Z,99254.28
2023-07-09T02:40:11.805Z,99230.34
2023-07-09T02:42:42.398Z,99243.00
2023-07-09T02:45:14.003Z,99250.06
2023-07-09T02:47:44.495Z,99237.66
2023-07-09T02:50:15.109Z,99239.66
2023-07-09T02:52:47.337Z,99225.72
2023-07-09T02:55:17.854Z,99230.25
2023-07-09T02:57:48.363Z,99226.06
2023-07-09T03:00:19.766Z,99226.41
2023-07-09T03:02:50.378Z,99190.94
2023-07-09T03:05:20.926Z,99216.50
2023-07-09T03:07:52.985Z,99148.28
2023-07-09T03:10:23.453Z,99209.78
2023-07-09T03:12:54.308Z,99211.44
2023-07-09T03:15:24.854Z,99207.41
2023-07-09T03:17:55.306Z,99209.09
2023-07-09T03:20:26.083Z,99198.34
2023-07-09T03:22:58.451Z,99197.69
2023-07-09T03:25:29.217Z,99201.34
2023-07-09T03:27:59.804Z,99185.91
2023-07-09T03:30:30.573Z,99192.97
2023-07-09T03:33:02.190Z,99186.25
2023-07-09T03:35:32.844Z,99192.63
2023-07-09T03:38:04.989Z,99196.63
2023-07-09T03:40:35.700Z,99194.97
2023-07-09T03:43:08.929Z,99198.50
2023-07-09T03:45:40.293Z,99198.03
2023-07-09T03:48:12.253Z,99198.00
2023-07-09T03:50:43.027Z,99189.94
2023-07-09T03:53:16.516Z,99187.59
2023-07-09T03:55:49.312Z,99175.47
2023-07-09T03:58:19.701Z,99187.94
2023-07-09T04:00:50.184Z,99152.13
2023-07-09T04:03:20.800Z,99188.41
2023-07-09T04:05:52.122Z,99185.91
2023-07-09T04:08:24.208Z,99189.59
2023-07-09T04:10:58.384Z,99160.03
2023-07-09T04:13:32.056Z,99179.53
2023-07-09T04:16:03.209Z,99167.25
2023-07-09T04:18:34.233Z,99170.44
2023-07-09T04:21:04.748Z,99168.75
2023-07-09T04:23:36.953Z,99168.44
2023-07-09T04:26:11.025Z,99159.88
2023-07-09T04:28:41.662Z,99171.44
2023-07-09T04:31:12.074Z,99160.66
2023-07-09T04:33:42.608Z,99160.19
2023-07-09T04:36:14.819Z,99160.19
2023-07-09T04:38:46.979Z,99143.91
2023-07-09T04:41:17.764Z,99167.75
2023-07-09T04:43:48.189Z,99168.09
2023-07-09T04:46:18.776Z,99167.09
2023-07-09T04:48:49.584Z,99163.75
2023-07-09T04:51:20.065Z,99165.75
2023-07-09T04:53:53.503Z,99162.22
2023-07-09T04:56:24.660Z,99149.28
2023-07-09T04:58:55.216Z,99149.44
2023-07-09T05:01:25.827Z,99153.81
2023-07-09T05:03:59.554Z,99153.63
2023-07-09T05:06:30.207Z,99143.06
2023-07-09T05:09:02.528Z,99143.22
2023-07-09T05:11:33.281Z,99136.53
2023-07-09T05:14:05.878Z,99120.06
2023-07-09T05:16:36.454Z,99123.72
2023-07-09T05:19:07.201Z,99117.34
2023-07-09T05:21:37.772Z,99121.03
2023-07-09T05:24:10.687Z,99113.81
2023-07-09T05:26:41.324Z,99101.56
2023-07-09T05:29:11.779Z,99109.31
2023-07-09T05:31:43.855Z,99116.03
2023-07-09T05:34:16.750Z,99113.00
2023-07-09T05:36:48.791Z,99105.47
2023-07-09T05:39:21.997Z,99096.38
2023-07-09T05:41:52.723Z,99111.50
2023-07-09T05:44:23.143Z,99109.06
2023-07-09T05:46:53.656Z,99110.25
2023-07-09T05:49:24.325Z,99103.53
2023-07-09T05:51:54.747Z,99110.38
2023-07-09T05:54:27.146Z,99109.16
2023-07-09T05:56:57.906Z,99109.78
2023-07-09T05:59:28.452Z,99115.47
2023-07-09T06:01:59.318Z,99117.28
2023-07-09T06:04:30.021Z,99109.38
2023-07-09T06:07:00.577Z,99112.03
2023-07-09T06:09:32.784Z,99098.91
2023-07-09T06:12:04.490Z,99101.00
2023-07-09T06:14:35.746Z,99104.84
2023-07-09T06:17:06.806Z,99106.88
2023-07-09T06:19:37.377Z,99103.34
2023-07-09T06:22:08.817Z,99102.38
2023-07-09T06:24:40.836Z,99094.66
2023-07-09T06:27:11.309Z,99092.22
2023-07-09T06:29:41.818Z,99083.19
2023-07-09T06:32:12.350Z,99091.59
2023-07-09T06:34:43.233Z,99085.09
2023-07-09T06:37:13.761Z,99074.47
2023-07-09T06:39:47.052Z,99084.03
2023-07-09T06:42:17.750Z,99078.34
2023-07-09T06:44:48.664Z,99083.88
2023-07-09T06:47:19.510Z,99085.34
2023-07-09T06:49:50.359Z,99086.00
2023-07-09T06:52:20.904Z,99079.00
2023-07-09T06:54:53.092Z,99077.34
2023-07-09T06:57:23.830Z,99077.34
2023-07-09T06:59:54.299Z,99072.31
2023-07-09T07:02:25.143Z,99064.25
2023-07-09T07:04:55.736Z,99079.03
2023-07-09T07:07:26.289Z,99075.69
2023-07-09T07:10:05.572Z,99072.97
2023-07-09T07:13:05.897Z,98994.47
2023-07-09T07:15:37.273Z,99081.13
2023-07-09T07:18:08.376Z,99088.50
2023-07-09T07:20:38.917Z,99084.78
2023-07-09T07:23:09.612Z,99066.31
2023-07-09T07:25:42.106Z,99087.13
2023-07-09T07:28:12.848Z,99084.94
2023-07-09T07:30:43.674Z,99092.16
2023-07-09T07:33:14.659Z,99080.75
2023-07-09T07:36:06.324Z,99087.31
2023-07-09T07:38:36.521Z,99083.09
2023-07-09T07:41:08.623Z,99095.03
2023-07-09T07:43:39.433Z,99090.81
2023-07-09T07:46:11.040Z,99079.75
2023-07-09T07:48:41.659Z,99095.19
2023-07-09T07:51:12.877Z,99101.53
2023-07-09T07:53:43.332Z,99092.09
2023-07-09T07:56:15.977Z,99101.19
2023-07-09T07:58:46.708Z,99093.63
2023-07-09T08:01:17.181Z,99104.66
2023-07-09T08:03:47.565Z,99099.94
2023-07-09T08:06:18.308Z,99098.53
2023-07-09T08:08:48.871Z,99103.38
2023-07-09T08:11:21.697Z,99109.25
2023-07-09T08:13:52.157Z,99105.41
2023-07-09T08:16:22.699Z,99100.59
2023-07-09T08:18:56.610Z,99098.38
2023-07-09T08:21:27.255Z,99100.38
2023-07-09T08:23:57.825Z,99107.41
2023-07-09T08:26:30.252Z,99103.31
2023-07-09T08:29:00.880Z,99101.00
2023-07-09T08:31:31.354Z,99103.44
2023-07-09T08:34:04.725Z,99099.13
2023-07-09T08:36:35.148Z,99105.09
2023-07-09T08:39:06.948Z,99105.44
2023-07-09T08:41:46.481Z,99122.13
2023-07-09T08:44:50.101Z,99126.81
2023-07-09T08:47:28.895Z,99123.13
2023-07-09T08:50:03.347Z,99128.44
2023-07-09T08:52:38.948Z,99123.09
2023-07-09T08:55:13.307Z,99121.72
2023-07-09T08:57:49.860Z,99108.94
2023-07-09T09:00:30.386Z,99109.59
2023-07-09T09:03:04.534Z,99100.47
2023-07-09T09:05:38.695Z,99115.59
2023-07-09T09:08:22.362Z,99107.50
2023-07-09T09:11:05.080Z,99112.22
2023-07-09T09:13:40.732Z,99118.44
2023-07-09T09:16:22.833Z,99119.91
2023-07-09T09:19:22.886Z,99126.53
2023-07-09T09:21:59.236Z,99129.94
2023-07-09T09:24:36.253Z,99120.81
2023-07-09T09:27:08.372Z,99118.06
2023-07-09T09:29:41.922Z,99125.31
2023-07-09T09:32:27.289Z,99128.88
2023-07-09T09:34:59.563Z,99126.09
2023-07-09T09:37:34.401Z,99099.78
2023-07-09T09:42:40.839Z,99131.34
2023-07-09T09:45:19.208Z,99123.22
2023-07-09T09:47:51.535Z,99125.53
2023-07-09T09:50:25.485Z,99128.09
2023-07-09T09:52:58.241Z,99130.91
2023-07-09T09:55:34.762Z,99136.84
2023-07-09T09:58:06.751Z,99123.69
2023-07-09T10:00:40.695Z,99142.50
2023-07-09T10:03:12.829Z,99151.19
2023-07-09T10:05:58.915Z,99139.97
2023-07-09T10:08:43.627Z,99147.25
2023-07-09T10:11:23.688Z,99109.53
2023-07-09T10:13:59.227Z,99147.06
2023-07-09T10:16:38.426Z,99097.63
2023-07-09T10:19:19.857Z,99137.38
2023-07-09T10:21:59.892Z,99141.13
2023-07-09T10:24:49.810Z,99147.25
2023-07-09T10:27:26.780Z,99143.28
2023-07-09T10:30:23.201Z,99151.50
2023-07-09T10:33:07.099Z,99158.69
2023-07-09T10:35:46.493Z,99146.59
2023-07-09T10:38:30.927Z,99169.88
2023-07-09T10:41:20.691Z,99092.00
2023-07-09T10:44:02.349Z,99182.31
2023-07-09T10:46:38.536Z,99149.03
2023-07-09T10:49:17.379Z,99165.72
2023-07-09T10:51:53.526Z,99185.53
2023-07-09T10:54:34.721Z,99182.41
2023-07-09T10:57:13.439Z,99186.50
2023-07-09T10:59:46.335Z,99183.13
2023-07-09T11:02:25.691Z,99179.25
2023-07-09T11:05:00.201Z,99175.31
2023-07-09T11:07:36.899Z,99197.56
2023-07-09T11:10:14.333Z,99212.44
2023-07-09T11:12:49.752Z,99219.94
2023-07-09T11:15:27.847Z,99216.56
2023-07-09T11:18:03.445Z,99199.66
2023-07-09T11:20:40.770Z,99183.44
2023-07-09T11:23:22.618Z,99218.88
2023-07-09T11:26:05.352Z,99223.81
2023-07-09T11:28:40.977Z,99216.53
2023-07-09T11:31:19.765Z,99199.94
2023-07-09T11:33:53.447Z,99224.00
2023-07-09T11:36:32.415Z,99219.91
2023-07-09T11:39:04.486Z,99220.34
2023-07-09T11:41:47.538Z,99235.34
2023-07-09T11:44:22.083Z,99202.69
2023-07-09T11:47:03.014Z,99244.84
2023-07-09T11:49:45.349Z,99248.69
2023-07-09T11:52:23.028Z,99249.78
2023-07-09T11:54:54.497Z,99243.28
2023-07-09T11:57:26.279Z,99259.22
2023-07-09T12:00:03.144Z,99248.28
2023-07-09T12:02:38.350Z,99249.72
2023-07-09T12:05:11.814Z,99254.44
2023-07-09T12:07:45.897Z,99256.56
2023-07-09T12:10:24.554Z,99256.19
2023-07-09T12:13:03.502Z,99254.22
2023-07-09T12:15:34.915Z,99262.19
2023-07-09T12:18:13.831Z,99267.94
2023-07-09T12:20:49.619Z,99255.69
2023-07-09T12:23:30.108Z,99212.88
2023-07-09T12:26:05.475Z,99228.97
2023-07-09T12:28:37.491Z,99261.81
2023-07-09T12:31:09.212Z,99271.19
2023-07-09T12:33:41.048Z,99275.88
2023-07-09T12:36:14.586Z,99281.66
2023-07-09T12:38:49.696Z,99272.53
2023-07-09T12:41:26.994Z,99270.31
2023-07-09T12:44:00.419Z,99285.41
2023-07-09T12:46:33.174Z,99252.41
2023-07-09T12:49:05.592Z,99270.22
2023-07-09T12:51:37.270Z,99267.34
2023-07-09T12:54:23.388Z,99259.91
2023-07-09T12:56:57.089Z,99217.03
2023-07-09T12:59:30.351Z,99253.88
2023-07-09T13:02:07.031Z,99249.16
2023-07-09T13:04:41.440Z,99248.56
2023-07-09T13:07:30.939Z,99244.94
2023-07-09T13:10:11.938Z,99241.78
2023-07-09T13:12:45.541Z,99247.31
2023-07-09T13:15:31.882Z,99246.56
2023-07-09T13:18:07.440Z,99237.34
2023-07-09T13:20:42.928Z,99238.84
2023-07-09T13:23:16.621Z,99245.84
2023-07-09T13:25:50.245Z,99233.97
2023-07-09T13:28:24.335Z,99250.91
2023-07-09T13:30:57.306Z,99252.84
2023-07-09T13:33:29.084Z,99268.50
2023-07-09T13:36:00.631Z,99268.50
2023-07-09T13:38:32.197Z,99261.53
2023-07-09T13:41:14.569Z,99262.97
2023-07-09T13:43:48.518Z,99265.53
2023-07-09T13:46:20.238Z,99262.97
2023-07-09T13:48:51.799Z,99254.84
2023-07-09T13:51:27.467Z,99267.03
2023-07-09T13:54:01.522Z,99254.09
2023-07-09T13:56:34.926Z,99262.13
2023-07-09T13:59:06.743Z,99254.50
2023-07-09T14:01:39.191Z,99247.75
2023-07-09T14:04:13.796Z,99232.16
2023-07-09T14:06:45.953Z,99239.06
2023-07-09T14:09:18.398Z,99246.25
2023-07-09T14:11:53.620Z,99245.44
2023-07-09T14:14:28.242Z,99241.59
2023-07-09T14:16:59.929Z,99228.81
2023-07-09T14:19:32.559Z,99238.97
2023-07-09T14:22:04.194Z,99236.31
2023-07-09T14:24:35.831Z,99231.22
2023-07-09T14:27:14.558Z,99237.19
2023-07-09T14:29:46.301Z,99231.00
2023-07-09T14:32:38.577Z,99234.63
2023-07-09T14:35:18.772Z,99234.63
2023-07-09T14:37:51.737Z,99228.81
2023-07-09T14:40:25.100Z,99234.63
2023-07-09T14:42:59.115Z,99234.84
2023-07-09T14:45:32.501Z,99227.09
2023-07-09T14:48:05.208Z,99239.94
2023-07-09T14:50:37.316Z,99243.53
2023-07-09T14:53:10.260Z,99231.69
2023-07-09T14:55:42.144Z,99204.09
2023-07-09T14:58:21.375Z,99215.97
2023-07-09T15:00:52.561Z,99231.69
2023-07-09T15:03:26.313Z,99176.97
2023-07-09T15:05:58.452Z,99224.88
2023-07-09T15:08:30.912Z,99230.59
2023-07-09T15:11:02.795Z,99234.19
2023-07-09T15:13:38.574Z,99238.03
2023-07-09T15:16:10.064Z,99243.50
2023-07-09T15:18:41.173Z,99236.09
2023-07-09T15:21:15.706Z,99243.72
2023-07-09T15:23:48.426Z,99237.38
2023-07-09T15:26:20.704Z,99235.28
2023-07-09T15:28:54.191Z,99242.28
2023-07-09T15:31:25.895Z,99219.38
2023-07-09T15:33:56.809Z,99222.97
2023-07-09T15:36:27.462Z,99223.81
2023-07-09T15:38:58.180Z,99218.81
2023-07-09T15:41:28.846Z,99217.03
2023-07-09T15:44:04.789Z,99225.50
2023-07-09T15:46:36.381Z,99220.66
2023-07-09T15:49:08.775Z,99187.38
2023-07-09T15:51:47.131Z,99212.91
2023-07-09T15:54:22.311Z,99201.13
2023-07-09T15:56:55.490Z,99208.22
2023-07-09T15:59:33.548Z,99207.41
2023-07-09T16:02:06.546Z,99195.63
2023-07-09T16:04:37.578Z,99209.19
2023-07-09T16:07:08.654Z,99200.72
2023-07-09T16:09:40.965Z,99199.00
2023-07-09T16:12:18.167Z,99187.13
2023-07-09T16:14:51.339Z,99193.91
2023-07-09T16:17:24.595Z,99184.19
2023-07-09T16:19:55.400Z,99201.97
2023-07-09T16:22:26.193Z,99208.13
2023-07-09T16:24:56.902Z,99210.47
2023-07-09T16:27:27.918Z,99197.84
2023-07-09T16:30:00.406Z,99205.78
2023-07-09T16:32:31.162Z,99189.28
2023-07-09T16:35:01.619Z,99203.88
2023-07-09T16:37:32.222Z,99196.06
2023-07-09T16:40:02.858Z,99195.84
2023-07-09T16:42:36.875Z,99188.44
2023-07-09T16:45:10.408Z,99172.56
2023-07-09T16:47:43.619Z,99178.25
2023-07-09T16:50:17.965Z,99137.41
2023-07-09T16:52:49.504Z,99169.16
2023-07-09T16:55:22.685Z,99154.56
2023-07-09T16:57:57.213Z,99168.94
2023-07-09T17:00:35.282Z,99137.97
2023-07-09T17:03:08.320Z,99167.88
2023-07-09T17:05:38.956Z,99165.31
2023-07-09T17:08:10.377Z,99181.19
2023-07-09T17:10:45.227Z,99179.53
2023-07-09T17:13:22.591Z,99176.53
2023-07-09T17:15:55.197Z,99120.56
2023-07-09T17:18:27.601Z,99164.22
2023-07-09T17:21:00.717Z,99173.66
2023-07-09T17:23:32.655Z,99134.97
2023-07-09T17:26:03.746Z,99140.25
2023-07-09T17:28:37.803Z,99186.03
2023-07-09T17:31:10.092Z,99189.41
2023-07-09T17:33:40.632Z,99182.41
2023-07-09T17:36:19.060Z,99153.81
2023-07-09T17:38:50.374Z,99180.75
2023-07-09T17:41:20.940Z,99174.28
2023-07-09T17:43:51.674Z,99159.56
2023-07-09T17:46:25.428Z,99163.28
2023-07-09T17:48:56.114Z,99176.53
2023-07-09T17:51:26.851Z,99165.06
2023-07-09T17:53:57.454Z,99157.25
2023-07-09T17:56:31.601Z,99155.75
2023-07-09T17:59:02.154Z,99153.00
2023-07-09T18:01:37.423Z,99134.13
2023-07-09T18:04:29.633Z,99159.56
2023-07-09T18:07:03.373Z,99161.03
2023-07-09T18:09:37.474Z,99162.75
2023-07-09T18:12:08.725Z,99155.13
2023-07-09T18:14:44.648Z,99147.88
2023-07-09T18:17:20.171Z,99127.56
2023-07-09T18:19:50.964Z,99161.88
2023-07-09T18:22:23.092Z,99126.69
2023-07-09T18:24:54.945Z,99170.97
2023-07-09T18:27:31.495Z,99161.03
2023-07-09T18:30:02.185Z,99180.91
2023-07-09T18:32:35.447Z,99192.47
2023-07-09T18:35:21.837Z,99200.78
2023-07-09T18:37:55.702Z,99195.94
2023-07-09T18:40:28.467Z,99182.56
2023-07-09T18:42:59.487Z,99184.22
2023-07-09T18:45:32.155Z,99163.47
2023-07-09T18:48:05.012Z,99165.28
2023-07-09T18:50:36.403Z,99174.06
2023-07-09T18:53:07.664Z,99171.94
2023-07-09T18:55:38.723Z,99176.72
2023-07-09T18:58:14.159Z,99149.81
2023-07-09T19:00:44.746Z,99158.81
2023-07-09T19:03:18.605Z,99157.56
2023-07-09T19:05:50.092Z,99161.59
2023-07-09T19:08:23.540Z,99156.13
2023-07-09T19:10:54.275Z,99162.88
2023-07-09T19:13:24.980Z,99151.47
2023-07-09T19:15:58.819Z,99154.03
2023-07-09T19:18:37.117Z,99133.84
2023-07-09T19:21:08.837Z,99137.47
2023-07-09T19:23:39.358Z,99171.56
2023-07-09T19:26:13.115Z,99150.34
2023-07-09T19:28:43.523Z,99180.22
2023-07-09T19:31:14.258Z,99186.34
2023-07-09T19:33:46.617Z,99195.97
2023-07-09T19:36:24.724Z,99202.00
2023-07-09T19:38:56.561Z,99204.78
2023-07-09T19:41:28.648Z,99167.34
2023-07-09T19:43:59.091Z,99193.88
2023-07-09T19:46:29.993Z,99208.41
2023-07-09T19:49:02.173Z,99204.63
2023-07-09T19:51:34.900Z,99218.38
2023-07-09T19:54:05.390Z,99216.28
2023-07-09T19:56:35.801Z,99222.63
2023-07-09T19:59:06.175Z,99221.28
2023-07-09T20:01:36.797Z,99233.38
2023-07-09T20:04:09.426Z,99220.75
2023-07-09T20:06:40.029Z,99233.13
2023-07-09T20:09:16.238Z,99197.94
2023-07-09T20:11:50.112Z,99228.13
2023-07-09T20:14:22.890Z,99233.81
2023-07-09T20:16:53.302Z,99239.78
2023-07-09T20:19:26.859Z,99224.78
2023-07-09T20:21:57.257Z,99193.91
2023-07-09T20:24:27.828Z,99236.72
2023-07-09T20:26:58.884Z,99234.84
2023-07-09T20:29:29.545Z,99244.19
2023-07-09T20:32:00.045Z,99220.00
2023-07-09T20:34:32.162Z,99219.81
2023-07-09T20:37:02.637Z,99214.06
2023-07-09T20:39:33.506Z,99209.94
2023-07-09T20:42:04.004Z,99202.53
2023-07-09T20:44:37.936Z,99210.69
2023-07-09T20:47:18.910Z,99209.81
2023-07-09T20:49:51.982Z,99199.66
2023-07-09T20:52:26.166Z,99209.84
2023-07-09T20:54:56.659Z,99221.00
2023-07-09T20:57:27.725Z,99220.81
2023-07-09T20:59:58.157Z,99221.03
2023-07-09T21:02:30.091Z,99189.56
2023-07-09T21:05:02.244Z,99218.50
2023-07-09T21:07:32.668Z,99203.47
2023-07-09T21:10:03.165Z,99216.75
2023-07-09T21:12:33.520Z,99223.72
2023-07-09T21:15:04.025Z,99229.78
2023-07-09T21:17:34.634Z,99239.63
2023-07-09T21:20:16.006Z,99228.41
2023-07-09T21:22:46.414Z,99225.66
2023-07-09T21:25:22.756Z,99225.22
2023-07-09T21:27:54.337Z,99231.16
2023-07-09T21:30:25.859Z,99224.97
2023-07-09T21:32:56.480Z,99234.47
2023-07-09T21:35:30.462Z,99228.50
2023-07-09T21:38:02.874Z,99237.34
2023-07-09T21:40:34.877Z,99240.13
2023-07-09T21:43:08.346Z,99241.81
2023-07-09T21:45:42.362Z,99237.47
2023-07-09T21:48:16.229Z,99225.91
2023-07-09T21:50:49.128Z,99201.16
2023-07-09T21:53:23.455Z,99233.84
2023-07-09T21:56:01.550Z,99240.47
2023-07-09T21:58:32.014Z,99236.34
2023-07-09T22:01:02.461Z,99239.72
2023-07-09T22:03:33.130Z,99228.63
2023-07-09T22:06:05.546Z,99217.94
2023-07-09T22:08:36.144Z,99218.38
2023-07-09T22:11:23.591Z,99210.22
2023-07-09T22:13:57.274Z,99198.19
2023-07-09T22:16:29.274Z,99206.28
2023-07-09T22:18:59.686Z,99203.91
2023-07-09T22:21:40.409Z,99207.69
2023-07-09T22:24:14.982Z,99182.09
2023-07-09T22:26:45.704Z,99216.53
2023-07-09T22:29:16.201Z,99219.97
2023-07-09T22:31:47.489Z,99218.56
2023-07-09T22:34:23.488Z,99202.13
2023-07-09T22:36:55.463Z,99199.75
2023-07-09T22:39:26.547Z,99212.75
2023-07-09T22:41:58.495Z,99210.63
2023-07-09T22:44:29.546Z,99215.50
2023-07-09T22:47:01.806Z,99206.41
2023-07-09T22:49:32.462Z,99207.72
2023-07-09T22:52:04.851Z,99199.78
2023-07-09T22:54:35.248Z,99198.53
2023-07-09T22:57:05.895Z,99191.97
2023-07-09T22:59:36.364Z,99199.84
2023-07-09T23:02:08.676Z,99202.09
2023-07-09T23:04:39.192Z,99195.09
2023-07-09T23:07:15.677Z,99177.94
2023-07-09T23:09:46.007Z,99182.94
2023-07-09T23:12:16.701Z,99168.88
2023-07-09T23:14:47.140Z,99177.91
2023-07-09T23:17:17.619Z,99179.00
2023-07-09T23:19:48.855Z,99179.91
2023-07-09T23:22:20.909Z,99172.50
2023-07-09T23:24:51.448Z,99175.88
2023-07-09T23:27:22.786Z,99177.84
2023-07-09T23:29:53.287Z,99184.97
2023-07-09T23:32:25.061Z,99177.03
2023-07-09T23:34:55.541Z,99190.41
2023-07-09T23:37:27.625Z,99177.78
2023-07-09T23:39:57.978Z,99182.25
2023-07-09T23:42:28.447Z,99181.53
2023-07-09T23:44:59.083Z,99182.38
2023-07-09T23:47:29.515Z,99184.97
2023-07-09T23:49:59.933Z,99173.97
2023-07-09T23:52:33.144Z,99181.31
2023-07-09T23:55:03.622Z,99181.88
2023-07-09T23:57:34.331Z,99175.75
